createdAt,value
2022-11-19T00:00:24.664Z,12.56
2022-11-19T00:01:24.611Z,12.60
2022-11-19T00:02:24.617Z,12.59
2022-11-19T00:03:24.494Z,12.59
2022-11-19T00:04:39.292Z,12.67
2022-11-19T00:05:24.384Z,12.67
2022-11-19T00:06:24.326Z,12.60
2022-11-19T00:07:24.316Z,12.63
2022-11-19T00:08:24.215Z,12.62
2022-11-19T00:09:24.156Z,12.59
2022-11-19T00:10:24.096Z,12.59
2022-11-19T00:11:24.038Z,12.63
2022-11-19T00:12:23.979Z,12.60
2022-11-19T00:13:23.925Z,12.60
2022-11-19T00:14:23.875Z,12.57
2022-11-19T00:15:23.815Z,12.62
2022-11-19T00:16:23.758Z,12.57
2022-11-19T00:17:23.703Z,12.57
2022-11-19T00:18:23.641Z,12.59
2022-11-19T00:19:23.592Z,12.56
2022-11-19T00:20:23.553Z,12.59
2022-11-19T00:21:23.477Z,12.56
2022-11-19T00:22:23.413Z,12.59
2022-11-19T00:23:23.362Z,12.56
2022-11-19T00:24:23.306Z,12.60
2022-11-19T00:25:23.245Z,12.59
2022-11-19T00:26:23.190Z,12.57
2022-11-19T00:27:23.140Z,12.60
2022-11-19T00:28:23.077Z,12.59
2022-11-19T00:29:23.572Z,12.60
2022-11-19T00:30:46.524Z,12.57
2022-11-19T00:31:22.911Z,12.57
2022-11-19T00:32:22.850Z,12.57
2022-11-19T00:33:22.802Z,12.59
2022-11-19T00:34:22.738Z,12.56
2022-11-19T00:35:22.680Z,12.54
2022-11-19T00:36:22.634Z,12.56
2022-11-19T00:37:22.571Z,12.59
2022-11-19T00:38:22.514Z,12.62
2022-11-19T00:39:22.679Z,12.63
2022-11-19T00:40:22.395Z,12.57
2022-11-19T00:41:22.345Z,12.57
2022-11-19T00:42:22.287Z,12.62
2022-11-19T00:43:22.233Z,12.56
2022-11-19T00:44:22.167Z,12.63
2022-11-19T00:45:22.112Z,12.57
2022-11-19T00:46:22.062Z,12.62
2022-11-19T00:47:21.999Z,12.57
2022-11-19T00:48:21.946Z,12.56
2022-11-19T00:49:22.072Z,12.57
2022-11-19T00:50:22.790Z,12.59
2022-11-19T00:51:23.312Z,12.59
2022-11-19T00:52:21.729Z,12.60
2022-11-19T00:53:42.646Z,12.56
2022-11-19T00:54:21.609Z,12.57
2022-11-19T00:55:21.548Z,12.59
2022-11-19T00:56:21.496Z,12.57
2022-11-19T00:57:21.433Z,12.59
2022-11-19T00:58:21.380Z,12.51
2022-11-19T00:59:21.537Z,12.54
2022-11-19T01:00:21.267Z,12.57
2022-11-19T01:01:21.286Z,12.59
2022-11-19T01:02:21.158Z,12.52
2022-11-19T01:03:21.095Z,12.57
2022-11-19T01:04:21.039Z,12.54
2022-11-19T01:05:20.977Z,12.56
2022-11-19T01:06:20.924Z,12.52
2022-11-19T01:07:20.881Z,12.60
2022-11-19T01:08:20.904Z,12.56
2022-11-19T01:09:21.014Z,12.59
2022-11-19T01:10:20.696Z,12.59
2022-11-19T01:11:20.641Z,12.56
2022-11-19T01:12:20.581Z,12.52
2022-11-19T01:13:20.528Z,12.60
2022-11-19T01:14:20.469Z,12.56
2022-11-19T01:15:20.411Z,12.56
2022-11-19T01:16:20.362Z,12.56
2022-11-19T01:17:20.297Z,12.60
2022-11-19T01:18:20.249Z,12.52
2022-11-19T01:19:20.411Z,12.59
2022-11-19T01:20:20.168Z,12.49
2022-11-19T01:21:20.075Z,12.60
2022-11-19T01:22:20.026Z,12.57
2022-11-19T01:23:19.961Z,12.57
2022-11-19T01:24:19.908Z,12.57
2022-11-19T01:25:19.852Z,12.56
2022-11-19T01:26:19.794Z,12.60
2022-11-19T01:27:19.737Z,12.51
2022-11-19T01:28:19.679Z,12.52
2022-11-19T01:29:20.022Z,12.46
2022-11-19T01:30:19.563Z,12.56
2022-11-19T01:31:19.511Z,12.60
2022-11-19T01:32:19.458Z,12.49
2022-11-19T01:33:19.395Z,12.60
2022-11-19T01:34:19.343Z,12.60
2022-11-19T01:35:19.286Z,12.56
2022-11-19T01:36:19.220Z,12.42
2022-11-19T01:37:19.166Z,12.48
2022-11-19T01:38:19.110Z,12.57
2022-11-19T01:39:19.404Z,12.57
2022-11-19T01:40:18.998Z,12.46
2022-11-19T01:41:18.942Z,12.57
2022-11-19T01:42:18.887Z,12.49
2022-11-19T01:43:18.830Z,12.57
2022-11-19T01:44:18.770Z,12.60
2022-11-19T01:45:18.715Z,12.56
2022-11-19T01:46:18.661Z,12.44
2022-11-19T01:47:18.602Z,12.60
2022-11-19T01:48:18.543Z,12.51
2022-11-19T01:49:18.873Z,12.57
2022-11-19T01:50:18.436Z,12.48
2022-11-19T01:51:18.378Z,12.52
2022-11-19T01:52:18.319Z,12.45
2022-11-19T01:53:18.262Z,12.46
2022-11-19T01:54:18.200Z,12.45
2022-11-19T01:55:18.149Z,12.48
2022-11-19T01:56:18.100Z,12.49
2022-11-19T01:57:18.037Z,12.46
2022-11-19T01:58:17.980Z,12.57
2022-11-19T01:59:18.225Z,12.48
2022-11-19T02:00:17.865Z,12.48
2022-11-19T02:01:17.840Z,12.51
2022-11-19T02:02:17.754Z,12.54
2022-11-19T02:03:17.692Z,12.48
2022-11-19T02:04:17.633Z,12.51
2022-11-19T02:05:17.587Z,12.56
2022-11-19T02:06:17.523Z,12.51
2022-11-19T02:07:17.513Z,12.48
2022-11-19T02:08:17.408Z,12.48
2022-11-19T02:09:17.711Z,12.49
2022-11-19T02:10:17.300Z,12.52
2022-11-19T02:11:17.248Z,12.48
2022-11-19T02:12:17.190Z,12.48
2022-11-19T02:13:17.135Z,12.51
2022-11-19T02:14:17.075Z,12.42
2022-11-19T02:15:17.018Z,12.48
2022-11-19T02:16:16.959Z,12.46
2022-11-19T02:17:17.817Z,12.46
2022-11-19T02:18:17.815Z,12.46
2022-11-19T02:19:17.176Z,12.48
2022-11-19T02:20:16.735Z,12.57
2022-11-19T02:21:16.670Z,12.48
2022-11-19T02:22:18.354Z,12.44
2022-11-19T02:23:16.561Z,12.52
2022-11-19T02:24:16.503Z,12.48
2022-11-19T02:25:16.445Z,12.45
2022-11-19T02:26:16.387Z,12.52
2022-11-19T02:27:16.336Z,12.46
2022-11-19T02:28:16.283Z,12.45
2022-11-19T02:29:16.227Z,12.42
2022-11-19T02:30:16.161Z,12.45
2022-11-19T02:31:16.117Z,12.51
2022-11-19T02:32:16.046Z,12.46
2022-11-19T02:33:15.998Z,12.44
2022-11-19T02:34:15.937Z,12.46
2022-11-19T02:35:15.880Z,12.49
2022-11-19T02:36:15.824Z,12.51
2022-11-19T02:37:15.768Z,12.42
2022-11-19T02:38:15.788Z,12.45
2022-11-19T02:39:15.673Z,12.48
2022-11-19T02:40:15.592Z,12.45
2022-11-19T02:41:15.538Z,12.41
2022-11-19T02:42:15.478Z,12.54
2022-11-19T02:43:15.427Z,12.41
2022-11-19T02:44:15.381Z,12.48
2022-11-19T02:45:15.310Z,12.41
2022-11-19T02:46:15.260Z,12.45
2022-11-19T02:47:15.203Z,12.48
2022-11-19T02:48:15.138Z,12.52
2022-11-19T02:49:15.087Z,12.45
2022-11-19T02:50:15.029Z,12.48
2022-11-19T02:51:14.972Z,12.44
2022-11-19T02:52:14.916Z,12.38
2022-11-19T02:53:14.861Z,12.46
2022-11-19T02:54:14.806Z,12.49
2022-11-19T02:55:14.744Z,12.52
2022-11-19T02:56:14.796Z,12.46
2022-11-19T02:57:14.636Z,12.45
2022-11-19T02:58:14.575Z,12.48
2022-11-19T02:59:14.516Z,12.44
2022-11-19T03:00:14.468Z,12.45
2022-11-19T03:01:14.455Z,12.45
2022-11-19T03:02:14.345Z,12.45
2022-11-19T03:03:14.297Z,12.51
2022-11-19T03:04:14.238Z,12.49
2022-11-19T03:05:14.178Z,12.46
2022-11-19T03:06:14.122Z,12.51
2022-11-19T03:07:14.111Z,12.45
2022-11-19T03:08:14.007Z,12.45
2022-11-19T03:09:13.948Z,12.45
2022-11-19T03:10:13.890Z,12.46
2022-11-19T03:11:13.843Z,12.51
2022-11-19T03:12:13.785Z,12.45
2022-11-19T03:13:13.721Z,12.46
2022-11-19T03:14:13.667Z,12.52
2022-11-19T03:15:13.616Z,12.51
2022-11-19T03:16:13.576Z,12.45
2022-11-19T03:17:13.496Z,12.51
2022-11-19T03:18:14.332Z,12.44
2022-11-19T03:19:13.388Z,12.51
2022-11-19T03:20:13.326Z,12.45
2022-11-19T03:21:13.272Z,12.45
2022-11-19T03:22:13.218Z,12.45
2022-11-19T03:23:13.156Z,12.49
2022-11-19T03:24:13.095Z,12.42
2022-11-19T03:25:13.047Z,12.54
2022-11-19T03:26:12.986Z,12.42
2022-11-19T03:27:12.932Z,12.41
2022-11-19T03:28:12.868Z,12.45
2022-11-19T03:29:12.817Z,12.48
2022-11-19T03:30:12.759Z,12.44
2022-11-19T03:31:12.703Z,12.41
2022-11-19T03:32:12.703Z,12.45
2022-11-19T03:33:12.591Z,12.41
2022-11-19T03:34:12.531Z,12.38
2022-11-19T03:35:12.477Z,12.45
2022-11-19T03:36:12.418Z,12.39
2022-11-19T03:37:12.363Z,12.45
2022-11-19T03:38:12.303Z,12.46
2022-11-19T03:39:12.247Z,12.42
2022-11-19T03:40:12.197Z,12.33
2022-11-19T03:41:12.140Z,12.45
2022-11-19T03:42:12.080Z,12.48
2022-11-19T03:43:12.022Z,12.46
2022-11-19T03:44:11.971Z,12.54
2022-11-19T03:45:11.912Z,12.38
2022-11-19T03:46:11.851Z,12.34
2022-11-19T03:47:11.799Z,12.38
2022-11-19T03:48:11.747Z,12.42
2022-11-19T03:49:11.682Z,12.38
2022-11-19T03:50:11.623Z,12.42
2022-11-19T03:51:11.570Z,12.37
2022-11-19T03:52:11.513Z,12.46
2022-11-19T03:53:11.459Z,12.41
2022-11-19T03:54:11.394Z,12.46
2022-11-19T03:55:11.341Z,12.31
2022-11-19T03:56:11.284Z,12.30
2022-11-19T03:57:11.226Z,12.51
2022-11-19T03:58:11.170Z,12.34
2022-11-19T03:59:11.118Z,12.38
2022-11-19T04:00:11.062Z,12.37
2022-11-19T04:01:10.999Z,12.37
2022-11-19T04:02:11.012Z,12.31
2022-11-19T04:03:10.890Z,12.48
2022-11-19T04:04:10.843Z,12.38
2022-11-19T04:05:10.771Z,12.31
2022-11-19T04:06:10.721Z,12.27
2022-11-19T04:07:10.741Z,12.33
2022-11-19T04:08:10.602Z,12.46
2022-11-19T04:09:10.548Z,12.34
2022-11-19T04:10:10.493Z,12.45
2022-11-19T04:11:31.419Z,12.37
2022-11-19T04:12:10.381Z,12.29
2022-11-19T04:13:10.323Z,12.30
2022-11-19T04:14:10.261Z,12.33
2022-11-19T04:15:10.211Z,12.29
2022-11-19T04:16:10.154Z,12.38
2022-11-19T04:17:10.098Z,12.44
2022-11-19T04:18:10.043Z,12.37
2022-11-19T04:19:09.977Z,12.31
2022-11-19T04:20:09.976Z,12.31
2022-11-19T04:21:09.863Z,12.37
2022-11-19T04:22:09.814Z,12.41
2022-11-19T04:23:09.754Z,12.31
2022-11-19T04:24:09.705Z,12.33
2022-11-19T04:25:09.639Z,12.42
2022-11-19T04:26:09.593Z,12.44
2022-11-19T04:27:09.529Z,12.44
2022-11-19T04:28:09.471Z,12.30
2022-11-19T04:29:09.406Z,12.45
2022-11-19T04:30:09.357Z,12.31
2022-11-19T04:31:12.326Z,12.37
2022-11-19T04:32:09.238Z,12.37
2022-11-19T04:33:09.186Z,12.39
2022-11-19T04:34:09.126Z,12.30
2022-11-19T04:35:09.066Z,12.30
2022-11-19T04:36:09.019Z,12.30
2022-11-19T04:37:08.956Z,12.33
2022-11-19T04:38:08.897Z,12.39
2022-11-19T04:39:08.848Z,12.33
2022-11-19T04:40:08.793Z,12.33
2022-11-19T04:41:08.732Z,12.37
2022-11-19T04:42:08.677Z,12.37
2022-11-19T04:43:08.616Z,12.39
2022-11-19T04:44:08.564Z,12.31
2022-11-19T04:45:08.503Z,12.44
2022-11-19T04:46:08.452Z,12.30
2022-11-19T04:47:08.389Z,12.30
2022-11-19T04:48:08.337Z,12.30
2022-11-19T04:49:08.283Z,12.37
2022-11-19T04:50:08.220Z,12.41
2022-11-19T04:51:08.161Z,12.37
2022-11-19T04:52:08.107Z,12.37
2022-11-19T04:53:08.049Z,12.33
2022-11-19T04:54:07.989Z,12.38
2022-11-19T04:55:07.939Z,12.44
2022-11-19T04:56:07.877Z,12.31
2022-11-19T04:57:07.818Z,12.39
2022-11-19T04:58:07.764Z,12.37
2022-11-19T04:59:07.702Z,12.42
2022-11-19T05:00:07.650Z,12.41
2022-11-19T05:01:07.673Z,12.34
2022-11-19T05:02:07.540Z,12.31
2022-11-19T05:03:07.479Z,12.41
2022-11-19T05:04:07.426Z,12.34
2022-11-19T05:05:07.378Z,12.38
2022-11-19T05:06:07.309Z,12.41
2022-11-19T05:07:07.292Z,12.34
2022-11-19T05:08:07.212Z,12.38
2022-11-19T05:09:07.135Z,12.37
2022-11-19T05:10:07.088Z,12.37
2022-11-19T05:11:07.029Z,12.34
2022-11-19T05:12:06.983Z,12.37
2022-11-19T05:13:06.914Z,12.33
2022-11-19T05:14:06.856Z,12.38
2022-11-19T05:15:06.798Z,12.31
2022-11-19T05:16:06.740Z,12.33
2022-11-19T05:17:06.680Z,12.34
2022-11-19T05:18:06.629Z,12.37
2022-11-19T05:19:06.575Z,12.30
2022-11-19T05:20:06.517Z,12.30
2022-11-19T05:21:06.456Z,12.38
2022-11-19T05:22:06.402Z,12.39
2022-11-19T05:23:06.346Z,12.38
2022-11-19T05:24:06.296Z,12.29
2022-11-19T05:25:06.234Z,12.39
2022-11-19T05:26:06.172Z,12.41
2022-11-19T05:27:06.117Z,12.34
2022-11-19T05:28:06.062Z,12.33
2022-11-19T05:29:06.005Z,12.39
2022-11-19T05:30:05.948Z,12.30
2022-11-19T05:31:05.889Z,12.37
2022-11-19T05:32:05.836Z,12.39
2022-11-19T05:33:05.779Z,12.34
2022-11-19T05:34:05.716Z,12.39
2022-11-19T05:35:05.662Z,12.37
2022-11-19T05:36:05.605Z,12.42
2022-11-19T05:37:05.548Z,12.37
2022-11-19T05:38:05.496Z,12.31
2022-11-19T05:39:05.432Z,12.38
2022-11-19T05:40:05.475Z,12.38
2022-11-19T05:41:05.317Z,12.37
2022-11-19T05:42:05.271Z,12.34
2022-11-19T05:43:05.313Z,12.37
2022-11-19T05:44:05.155Z,12.39
2022-11-19T05:45:05.096Z,12.34
2022-11-19T05:46:05.039Z,12.37
2022-11-19T05:47:04.981Z,12.37
2022-11-19T05:48:04.923Z,12.37
2022-11-19T05:49:04.870Z,12.33
2022-11-19T05:50:04.807Z,12.37
2022-11-19T05:51:04.754Z,12.34
2022-11-19T05:52:04.703Z,12.39
2022-11-19T05:53:04.643Z,12.37
2022-11-19T05:54:04.627Z,12.37
2022-11-19T05:55:04.528Z,12.37
2022-11-19T05:56:04.534Z,12.38
2022-11-19T05:57:04.413Z,12.34
2022-11-19T05:58:04.356Z,12.29
2022-11-19T05:59:04.305Z,12.37
2022-11-19T06:00:04.244Z,12.30
2022-11-19T06:01:25.174Z,12.37
2022-11-19T06:02:04.132Z,12.38
2022-11-19T06:03:04.103Z,12.38
2022-11-19T06:04:04.023Z,12.38
2022-11-19T06:05:05.905Z,12.31
2022-11-19T06:06:03.904Z,12.33
2022-11-19T06:07:05.432Z,12.33
2022-11-19T06:08:05.393Z,12.33
2022-11-19T06:09:03.733Z,12.33
2022-11-19T06:10:03.676Z,12.31
2022-11-19T06:11:03.616Z,12.33
2022-11-19T06:12:03.567Z,12.38
2022-11-19T06:13:03.499Z,12.38
2022-11-19T06:14:03.471Z,12.33
2022-11-19T06:15:03.389Z,12.38
2022-11-19T06:16:03.333Z,12.34
2022-11-19T06:17:03.281Z,12.37
2022-11-19T06:18:03.223Z,12.34
2022-11-19T06:19:03.162Z,12.37
2022-11-19T06:20:03.103Z,12.34
2022-11-19T06:21:05.966Z,12.34
2022-11-19T06:22:02.997Z,12.34
2022-11-19T06:23:02.935Z,12.33
2022-11-19T06:24:02.887Z,12.38
2022-11-19T06:25:02.817Z,12.38
2022-11-19T06:26:02.766Z,12.33
2022-11-19T06:27:02.709Z,12.33
2022-11-19T06:28:02.676Z,12.34
2022-11-19T06:29:02.595Z,12.33
2022-11-19T06:30:02.544Z,12.34
2022-11-19T06:31:02.485Z,12.34
2022-11-19T06:32:02.427Z,12.34
2022-11-19T06:33:02.367Z,12.29
2022-11-19T06:34:02.315Z,12.37
2022-11-19T06:35:02.249Z,12.33
2022-11-19T06:36:02.196Z,12.33
2022-11-19T06:37:02.141Z,12.27
2022-11-19T06:38:02.084Z,12.33
2022-11-19T06:39:02.021Z,12.31
2022-11-19T06:40:01.973Z,12.38
2022-11-19T06:41:01.912Z,12.30
2022-11-19T06:42:01.857Z,12.29
2022-11-19T06:43:01.807Z,12.31
2022-11-19T06:44:01.751Z,12.33
2022-11-19T06:45:01.690Z,12.29
2022-11-19T06:46:01.627Z,12.31
2022-11-19T06:47:01.573Z,12.29
2022-11-19T06:48:01.514Z,12.34
2022-11-19T06:49:01.454Z,12.34
2022-11-19T06:50:01.400Z,12.29
2022-11-19T06:51:01.348Z,12.31
2022-11-19T06:52:01.284Z,12.37
2022-11-19T06:53:01.239Z,12.33
2022-11-19T06:54:01.174Z,12.34
2022-11-19T06:55:01.117Z,12.33
2022-11-19T06:56:01.057Z,12.31
2022-11-19T06:57:01.005Z,12.38
2022-11-19T06:58:00.952Z,12.31
2022-11-19T06:59:00.889Z,12.38
2022-11-19T07:00:00.840Z,12.34
2022-11-19T07:01:00.773Z,12.31
2022-11-19T07:02:00.756Z,12.38
2022-11-19T07:03:00.661Z,12.33
2022-11-19T07:04:00.607Z,12.30
2022-11-19T07:05:00.544Z,12.29
2022-11-19T07:06:00.489Z,12.29
2022-11-19T07:07:00.498Z,12.29
2022-11-19T07:08:03.202Z,12.31
2022-11-19T07:09:00.320Z,12.31
2022-11-19T07:10:00.272Z,12.33
2022-11-19T07:11:00.208Z,12.37
2022-11-19T07:12:00.151Z,12.30
2022-11-19T07:13:00.095Z,12.29
2022-11-19T07:14:00.446Z,12.37
2022-11-19T07:15:04.256Z,12.33
2022-11-19T07:15:59.941Z,12.34
2022-11-19T07:16:59.868Z,12.29
2022-11-19T07:17:59.808Z,12.33
2022-11-19T07:18:59.749Z,12.23
2022-11-19T07:19:59.699Z,12.33
2022-11-19T07:20:59.636Z,12.29
2022-11-19T07:21:59.584Z,12.34
2022-11-19T07:22:59.679Z,12.33
2022-11-19T07:23:59.474Z,12.27
2022-11-19T07:24:59.413Z,12.37
2022-11-19T07:25:59.353Z,12.34
2022-11-19T07:26:59.302Z,12.31
2022-11-19T07:27:59.238Z,12.29
2022-11-19T07:29:04.254Z,12.37
2022-11-19T07:29:59.157Z,12.34
2022-11-19T07:30:59.067Z,12.34
2022-11-19T07:31:59.020Z,12.33
2022-11-19T07:32:58.953Z,12.31
2022-11-19T07:33:58.907Z,12.33
2022-11-19T07:34:58.843Z,12.31
2022-11-19T07:35:58.811Z,12.24
2022-11-19T07:36:58.735Z,12.30
2022-11-19T07:37:58.669Z,12.31
2022-11-19T07:38:58.617Z,12.31
2022-11-19T07:39:58.561Z,12.34
2022-11-19T07:40:58.516Z,12.34
2022-11-19T07:41:58.443Z,12.34
2022-11-19T07:42:58.391Z,12.33
2022-11-19T07:43:58.333Z,12.29
2022-11-19T07:44:58.281Z,12.27
2022-11-19T07:45:58.215Z,12.27
2022-11-19T07:46:58.902Z,12.29
2022-11-19T07:47:58.110Z,12.34
2022-11-19T07:48:58.048Z,12.33
2022-11-19T07:49:57.993Z,12.33
2022-11-19T07:50:57.933Z,12.33
2022-11-19T07:51:57.873Z,12.26
2022-11-19T07:52:57.823Z,12.31
2022-11-19T07:53:57.770Z,12.38
2022-11-19T07:54:57.742Z,12.34
2022-11-19T07:55:57.667Z,12.33
2022-11-19T07:56:57.595Z,12.30
2022-11-19T07:57:57.534Z,12.37
2022-11-19T07:58:57.480Z,12.37
2022-11-19T07:59:57.433Z,12.27
2022-11-19T08:00:57.363Z,12.34
2022-11-19T08:01:57.370Z,12.27
2022-11-19T08:02:57.252Z,12.31
2022-11-19T08:03:57.202Z,12.29
2022-11-19T08:04:57.137Z,12.31
2022-11-19T08:05:57.088Z,12.31
2022-11-19T08:06:57.101Z,12.29
2022-11-19T08:07:56.967Z,12.34
2022-11-19T08:08:56.915Z,12.29
2022-11-19T08:09:56.858Z,12.34
2022-11-19T08:10:56.793Z,12.27
2022-11-19T08:11:56.738Z,12.29
2022-11-19T08:12:56.680Z,12.33
2022-11-19T08:14:03.414Z,12.34
2022-11-19T08:14:56.567Z,12.33
2022-11-19T08:15:56.510Z,12.34
2022-11-19T08:16:56.453Z,12.34
2022-11-19T08:17:56.396Z,12.33
2022-11-19T08:18:56.344Z,12.34
2022-11-19T08:19:56.295Z,12.31
2022-11-19T08:20:56.230Z,12.30
2022-11-19T08:21:56.169Z,12.38
2022-11-19T08:22:56.117Z,12.34
2022-11-19T08:23:56.058Z,12.29
2022-11-19T08:24:56.001Z,12.29
2022-11-19T08:25:55.949Z,12.37
2022-11-19T08:26:55.888Z,12.38
2022-11-19T08:27:55.830Z,12.31
2022-11-19T08:28:55.775Z,12.31
2022-11-19T08:29:55.714Z,12.31
2022-11-19T08:30:55.660Z,12.29
2022-11-19T08:31:55.605Z,12.37
2022-11-19T08:32:55.542Z,12.34
2022-11-19T08:33:55.506Z,12.34
2022-11-19T08:34:55.444Z,12.38
2022-11-19T08:35:55.392Z,12.30
2022-11-19T08:36:55.328Z,12.34
2022-11-19T08:37:55.281Z,12.31
2022-11-19T08:38:55.236Z,12.37
2022-11-19T08:39:55.165Z,12.37
2022-11-19T08:40:55.092Z,12.31
2022-11-19T08:41:55.035Z,12.38
2022-11-19T08:42:54.975Z,12.33
2022-11-19T08:43:54.918Z,12.34
2022-11-19T08:44:54.872Z,12.38
2022-11-19T08:45:54.814Z,12.37
2022-11-19T08:46:54.750Z,12.37
2022-11-19T08:47:54.695Z,12.38
2022-11-19T08:48:54.638Z,12.39
2022-11-19T08:49:54.582Z,12.37
2022-11-19T08:50:54.518Z,12.33
2022-11-19T08:51:54.474Z,12.37
2022-11-19T08:52:54.404Z,12.37
2022-11-19T08:53:54.348Z,12.29
2022-11-19T08:54:54.302Z,12.34
2022-11-19T08:55:54.240Z,12.39
2022-11-19T08:56:54.177Z,12.31
2022-11-19T08:57:54.128Z,12.37
2022-11-19T08:58:56.343Z,12.33
2022-11-19T08:59:54.015Z,12.39
2022-11-19T09:00:54.012Z,12.39
2022-11-19T09:01:53.898Z,12.37
2022-11-19T09:02:53.838Z,12.37
2022-11-19T09:03:53.785Z,12.39
2022-11-19T09:04:53.729Z,12.34
2022-11-19T09:05:53.670Z,12.34
2022-11-19T09:06:53.609Z,12.39
2022-11-19T09:07:53.569Z,12.37
2022-11-19T09:08:53.503Z,12.38
2022-11-19T09:09:53.444Z,12.33
2022-11-19T09:10:53.388Z,12.37
2022-11-19T09:11:53.333Z,12.38
2022-11-19T09:12:53.272Z,12.34
2022-11-19T09:13:53.212Z,12.37
2022-11-19T09:14:53.165Z,12.33
2022-11-19T09:15:53.099Z,12.38
2022-11-19T09:16:53.040Z,12.39
2022-11-19T09:17:52.988Z,12.42
2022-11-19T09:18:52.934Z,12.27
2022-11-19T09:19:52.871Z,12.27
2022-11-19T09:20:52.814Z,12.30
2022-11-19T09:21:52.763Z,12.31
2022-11-19T09:22:52.701Z,12.38
2022-11-19T09:23:52.658Z,12.27
2022-11-19T09:24:52.589Z,12.44
2022-11-19T09:25:52.534Z,12.30
2022-11-19T09:26:53.222Z,12.41
2022-11-19T09:27:52.416Z,12.26
2022-11-19T09:28:52.361Z,12.30
2022-11-19T09:29:52.308Z,12.39
2022-11-19T09:30:52.251Z,12.39
2022-11-19T09:31:52.195Z,12.30
2022-11-19T09:32:52.135Z,12.33
2022-11-19T09:33:52.077Z,12.39
2022-11-19T09:34:52.019Z,12.33
2022-11-19T09:35:51.961Z,12.39
2022-11-19T09:36:51.914Z,12.30
2022-11-19T09:37:51.851Z,12.31
2022-11-19T09:38:51.797Z,12.34
2022-11-19T09:39:51.741Z,12.30
2022-11-19T09:40:51.685Z,12.38
2022-11-19T09:41:51.628Z,12.38
2022-11-19T09:42:51.562Z,12.41
2022-11-19T09:43:51.510Z,12.42
2022-11-19T09:44:51.452Z,12.42
2022-11-19T09:45:51.393Z,12.30
2022-11-19T09:46:51.336Z,12.33
2022-11-19T09:47:51.286Z,12.44
2022-11-19T09:48:51.222Z,12.31
2022-11-19T09:49:51.167Z,12.30
2022-11-19T09:50:53.548Z,12.33
2022-11-19T09:51:51.058Z,12.44
2022-11-19T09:52:50.994Z,12.38
2022-11-19T09:53:50.939Z,12.31
2022-11-19T09:54:50.885Z,12.45
2022-11-19T09:55:50.842Z,12.41
2022-11-19T09:56:50.772Z,12.37
2022-11-19T09:57:50.716Z,12.41
2022-11-19T09:58:50.654Z,12.30
2022-11-19T09:59:50.596Z,12.37
2022-11-19T10:00:50.543Z,12.38
2022-11-19T10:01:50.487Z,12.33
2022-11-19T10:02:50.458Z,12.27
2022-11-19T10:03:50.375Z,12.49
2022-11-19T10:04:50.320Z,12.34
2022-11-19T10:05:50.254Z,12.37
2022-11-19T10:06:50.203Z,12.41
2022-11-19T10:07:50.148Z,12.33
2022-11-19T10:08:50.088Z,12.41
2022-11-19T10:09:50.034Z,12.42
2022-11-19T10:10:49.982Z,12.49
2022-11-19T10:11:49.924Z,12.37
2022-11-19T10:12:49.862Z,12.39
2022-11-19T10:13:49.812Z,12.49
2022-11-19T10:14:49.744Z,12.44
2022-11-19T10:15:49.708Z,12.51
2022-11-19T10:16:49.637Z,12.48
2022-11-19T10:17:49.574Z,12.51
2022-11-19T10:18:49.548Z,12.39
2022-11-19T10:19:49.458Z,12.51
2022-11-19T10:20:49.411Z,12.38
2022-11-19T10:21:49.352Z,12.46
2022-11-19T10:22:54.232Z,12.45
2022-11-19T10:23:49.233Z,12.42
2022-11-19T10:24:49.182Z,12.37
2022-11-19T10:25:49.122Z,12.44
2022-11-19T10:26:49.067Z,12.42
2022-11-19T10:27:49.016Z,12.39
2022-11-19T10:28:48.951Z,12.44
2022-11-19T10:29:48.895Z,12.45
2022-11-19T10:30:48.841Z,12.31
2022-11-19T10:31:48.780Z,12.45
2022-11-19T10:32:48.722Z,12.48
2022-11-19T10:33:48.670Z,12.45
2022-11-19T10:34:48.611Z,12.45
2022-11-19T10:35:48.552Z,12.48
2022-11-19T10:36:48.503Z,12.45
2022-11-19T10:37:48.533Z,12.45
2022-11-19T10:38:51.202Z,12.52
2022-11-19T10:39:48.328Z,12.41
2022-11-19T10:40:48.267Z,12.45
2022-11-19T10:41:48.209Z,12.41
2022-11-19T10:42:48.158Z,12.48
2022-11-19T10:43:48.158Z,12.44
2022-11-19T10:44:48.042Z,12.41
2022-11-19T10:45:47.988Z,12.45
2022-11-19T10:46:47.929Z,12.46
2022-11-19T10:47:47.871Z,12.41
2022-11-19T10:48:47.818Z,12.39
2022-11-19T10:49:47.764Z,12.45
2022-11-19T10:50:47.700Z,12.42
2022-11-19T10:51:47.647Z,12.44
2022-11-19T10:52:47.585Z,12.44
2022-11-19T10:53:47.531Z,12.48
2022-11-19T10:54:47.477Z,12.44
2022-11-19T10:55:51.471Z,12.45
2022-11-19T10:56:47.359Z,12.46
2022-11-19T10:57:47.308Z,12.46
2022-11-19T10:58:47.258Z,12.46
2022-11-19T10:59:47.265Z,12.52
2022-11-19T11:00:47.197Z,12.38
2022-11-19T11:01:47.073Z,12.48
2022-11-19T11:02:47.025Z,12.48
2022-11-19T11:03:46.965Z,12.49
2022-11-19T11:04:46.904Z,12.42
2022-11-19T11:05:46.859Z,12.51
2022-11-19T11:06:46.803Z,12.45
2022-11-19T11:07:50.164Z,12.46
2022-11-19T11:08:46.681Z,12.39
2022-11-19T11:09:46.622Z,12.46
2022-11-19T11:10:46.566Z,12.42
2022-11-19T11:11:46.508Z,12.52
2022-11-19T11:12:46.453Z,12.46
2022-11-19T11:13:46.395Z,12.45
2022-11-19T11:14:46.344Z,12.48
2022-11-19T11:15:46.285Z,12.46
2022-11-19T11:16:46.229Z,12.48
2022-11-19T11:17:46.163Z,12.44
2022-11-19T11:18:46.118Z,12.46
2022-11-19T11:19:46.057Z,12.46
2022-11-19T11:20:45.996Z,12.39
2022-11-19T11:21:45.942Z,12.51
2022-11-19T11:22:45.882Z,12.48
2022-11-19T11:23:45.831Z,12.49
2022-11-19T11:24:45.767Z,12.39
2022-11-19T11:25:45.722Z,12.46
2022-11-19T11:26:45.660Z,12.46
2022-11-19T11:27:45.604Z,12.42
2022-11-19T11:28:45.542Z,12.41
2022-11-19T11:29:45.522Z,12.51
2022-11-19T11:30:45.434Z,12.48
2022-11-19T11:31:45.372Z,12.51
2022-11-19T11:32:45.317Z,12.46
2022-11-19T11:33:45.261Z,12.45
2022-11-19T11:34:45.199Z,12.45
2022-11-19T11:35:45.141Z,12.44
2022-11-19T11:36:45.089Z,12.45
2022-11-19T11:37:45.035Z,12.45
2022-11-19T11:38:44.981Z,12.48
2022-11-19T11:39:44.920Z,12.54
2022-11-19T11:40:44.863Z,12.51
2022-11-19T11:42:44.748Z,12.52
2022-11-19T11:43:44.696Z,12.52
2022-11-19T11:44:44.638Z,12.44
2022-11-19T11:45:44.576Z,12.42
2022-11-19T11:46:44.520Z,12.48
2022-11-19T11:47:44.467Z,12.46
2022-11-19T11:48:44.405Z,12.49
2022-11-19T11:49:44.347Z,12.46
2022-11-19T11:50:44.309Z,12.45
2022-11-19T11:51:44.239Z,12.46
2022-11-19T11:52:44.181Z,12.46
2022-11-19T11:53:44.125Z,12.44
2022-11-19T11:54:44.072Z,12.48
2022-11-19T11:55:44.006Z,12.45
2022-11-19T11:56:43.955Z,12.44
2022-11-19T11:57:43.893Z,12.54
2022-11-19T11:58:43.841Z,12.45
2022-11-19T11:59:43.778Z,12.39
2022-11-19T12:00:43.723Z,12.45
2022-11-19T12:01:43.674Z,12.49
2022-11-19T12:02:43.631Z,12.46
2022-11-19T12:03:54.675Z,12.51
2022-11-19T12:04:43.499Z,12.44
2022-11-19T12:05:43.443Z,12.49
2022-11-19T12:06:43.386Z,12.44
2022-11-19T12:07:43.368Z,12.48
2022-11-19T12:08:43.278Z,12.51
2022-11-19T12:09:43.213Z,12.45
2022-11-19T12:10:43.163Z,12.49
2022-11-19T12:11:43.097Z,12.48
2022-11-19T12:12:43.042Z,12.51
2022-11-19T12:13:42.992Z,12.51
2022-11-19T12:14:42.932Z,12.48
2022-11-19T12:15:42.872Z,12.52
2022-11-19T12:16:42.815Z,12.49
2022-11-19T12:17:42.758Z,12.48
2022-11-19T12:18:42.707Z,12.46
2022-11-19T12:19:42.650Z,12.42
2022-11-19T12:20:42.591Z,12.46
2022-11-19T12:21:42.534Z,12.45
2022-11-19T12:22:42.480Z,12.48
2022-11-19T12:23:42.424Z,12.49
2022-11-19T12:24:42.363Z,12.42
2022-11-19T12:25:42.307Z,12.48
2022-11-19T12:26:42.253Z,12.38
2022-11-19T12:27:42.192Z,12.44
2022-11-19T12:28:42.139Z,12.41
2022-11-19T12:29:43.981Z,12.41
2022-11-19T12:30:42.027Z,12.42
2022-11-19T12:31:41.969Z,12.44
2022-11-19T12:32:41.912Z,12.46
2022-11-19T12:33:41.860Z,12.44
2022-11-19T12:34:41.794Z,12.46
2022-11-19T12:35:41.846Z,12.44
2022-11-19T12:36:41.684Z,12.45
2022-11-19T12:37:41.622Z,12.48
2022-11-19T12:38:41.582Z,12.41
2022-11-19T12:39:41.515Z,12.42
2022-11-19T12:40:42.158Z,12.51
2022-11-19T12:41:41.397Z,12.44
2022-11-19T12:42:41.347Z,12.46
2022-11-19T12:43:41.289Z,12.49
2022-11-19T12:44:41.224Z,12.42
2022-11-19T12:45:41.177Z,12.42
2022-11-19T12:46:41.116Z,12.44
2022-11-19T12:47:44.921Z,12.41
2022-11-19T12:48:41.003Z,12.45
2022-11-19T12:49:40.943Z,12.45
2022-11-19T12:50:40.892Z,12.49
2022-11-19T12:51:40.831Z,12.51
2022-11-19T12:52:40.772Z,12.44